createdAt,value
2023-04-16T00:01:34.799Z,-0.70
2023-04-16T00:04:03.542Z,-0.70
2023-04-16T00:06:32.251Z,-0.70
2023-04-16T00:09:03.022Z,-0.70
2023-04-16T00:11:32.582Z,-0.70
2023-04-16T00:14:00.797Z,-0.70
2023-04-16T00:16:29.021Z,-0.80
2023-04-16T00:18:57.161Z,-0.80
2023-04-16T00:21:25.275Z,-1.10
2023-04-16T00:23:53.519Z,-1.00
2023-04-16T00:26:24.354Z,-0.90
2023-04-16T00:28:54.093Z,-0.90
2023-04-16T00:31:27.738Z,-0.90
2023-04-16T00:33:56.383Z,-0.90
2023-04-16T00:36:24.622Z,-0.90
2023-04-16T00:38:53.493Z,-0.80
2023-04-16T00:41:21.763Z,-1.00
2023-04-16T00:43:50.155Z,-1.10
2023-04-16T00:46:23.981Z,-1.30
2023-04-16T00:48:52.979Z,-1.00
2023-04-16T00:51:21.479Z,-1.00
2023-04-16T00:53:52.635Z,-1.00
2023-04-16T00:56:21.308Z,-1.10
2023-04-16T00:58:49.698Z,-1.10
2023-04-16T01:01:19.227Z,-1.10
2023-04-16T01:03:48.130Z,-1.10
2023-04-16T01:06:18.029Z,-1.10
2023-04-16T01:08:46.292Z,-1.20
2023-04-16T01:11:15.329Z,-1.20
2023-04-16T01:13:43.648Z,-1.20
2023-04-16T01:16:12.764Z,-1.20
2023-04-16T01:18:42.429Z,-1.20
2023-04-16T01:21:14.804Z,-1.20
2023-04-16T01:23:46.156Z,-1.20
2023-04-16T01:26:14.270Z,-1.20
2023-04-16T01:28:42.504Z,-1.20
2023-04-16T01:31:13.552Z,-1.30
2023-04-16T01:33:41.731Z,-1.30
2023-04-16T01:36:10.051Z,-1.30
2023-04-16T01:38:39.753Z,-1.40
2023-04-16T01:41:07.924Z,-1.50
2023-04-16T01:43:37.900Z,-1.50
2023-04-16T01:46:13.915Z,-1.40
2023-04-16T01:48:42.199Z,-1.40
2023-04-16T01:51:10.680Z,-1.40
2023-04-16T01:53:41.570Z,-1.30
2023-04-16T01:56:09.748Z,-1.40
2023-04-16T01:58:37.990Z,-1.40
2023-04-16T02:01:07.058Z,-1.30
2023-04-16T02:03:37.687Z,-1.30
2023-04-16T02:06:06.171Z,-1.40
2023-04-16T02:08:34.543Z,-1.40
2023-04-16T02:11:04.252Z,-1.40
2023-04-16T02:13:32.406Z,-1.40
2023-04-16T02:16:00.667Z,-1.30
2023-04-16T02:18:29.162Z,-1.20
2023-04-16T02:20:59.223Z,-1.00
2023-04-16T02:23:27.608Z,-1.00
2023-04-16T02:25:55.920Z,-0.80
2023-04-16T02:28:28.571Z,-0.80
2023-04-16T02:30:56.800Z,-0.80
2023-04-16T02:33:26.453Z,-0.90
2023-04-16T02:35:54.695Z,-0.90
2023-04-16T02:38:22.825Z,-0.90
2023-04-16T02:40:51.165Z,-0.90
2023-04-16T02:43:19.329Z,-0.90
2023-04-16T02:45:49.065Z,-1.00
2023-04-16T02:48:17.314Z,-0.90
2023-04-16T02:50:45.394Z,-0.80
2023-04-16T02:53:13.522Z,-0.80
2023-04-16T02:55:41.725Z,-0.80
2023-04-16T02:58:09.922Z,-0.90
2023-04-16T03:00:39.105Z,-0.90
2023-04-16T03:03:08.637Z,-0.90
2023-04-16T03:05:38.511Z,-0.80
2023-04-16T03:08:08.667Z,-0.70
2023-04-16T03:10:37.273Z,-0.80
2023-04-16T03:13:05.803Z,-0.80
2023-04-16T03:15:34.101Z,-0.60
2023-04-16T03:18:02.422Z,-0.60
2023-04-16T03:20:32.192Z,-0.60
2023-04-16T03:23:00.547Z,-0.50
2023-04-16T03:25:28.666Z,-0.60
2023-04-16T03:27:57.016Z,-0.60
2023-04-16T03:30:25.249Z,-0.50
2023-04-16T03:32:53.533Z,-0.50
2023-04-16T03:35:24.655Z,-0.40
2023-04-16T03:37:54.404Z,-0.30
2023-04-16T03:40:22.628Z,-0.40
2023-04-16T03:42:50.989Z,-0.60
2023-04-16T03:45:19.148Z,-0.60
2023-04-16T03:47:54.997Z,-0.60
2023-04-16T03:50:23.314Z,-0.40
2023-04-16T03:52:51.409Z,-0.30
2023-04-16T03:55:21.183Z,-0.30
2023-04-16T03:57:49.276Z,-0.40
2023-04-16T04:00:17.614Z,-0.40
2023-04-16T04:02:45.971Z,-0.40
2023-04-16T04:05:14.339Z,-0.40
2023-04-16T04:07:42.676Z,-0.40
2023-04-16T04:10:11.026Z,-0.40
2023-04-16T04:12:45.683Z,-0.30
2023-04-16T04:15:13.884Z,-0.40
2023-04-16T04:17:42.161Z,-0.40
2023-04-16T04:20:13.306Z,-0.30
2023-04-16T04:22:41.426Z,-0.20
2023-04-16T04:25:10.074Z,-0.20
2023-04-16T04:27:38.296Z,-0.20
2023-04-16T04:30:11.885Z,0.00
2023-04-16T04:32:40.035Z,0.00
2023-04-16T04:35:08.657Z,0.00
2023-04-16T04:37:36.752Z,0.20
2023-04-16T04:40:05.165Z,0.40
2023-04-16T04:42:33.563Z,0.40
2023-04-16T04:45:01.684Z,0.60
2023-04-16T04:47:31.275Z,1.00
2023-04-16T04:49:59.635Z,1.20
2023-04-16T04:52:27.727Z,1.30
2023-04-16T04:54:56.454Z,1.40
2023-04-16T04:57:24.847Z,1.40
2023-04-16T04:59:52.930Z,1.50
2023-04-16T05:02:21.334Z,1.50
2023-04-16T05:04:50.983Z,1.60
2023-04-16T05:07:19.352Z,1.80
2023-04-16T05:09:47.447Z,1.90
2023-04-16T05:12:15.780Z,1.90
2023-04-16T05:14:43.936Z,2.00
2023-04-16T05:17:12.179Z,2.10
2023-04-16T05:19:40.647Z,2.30
2023-04-16T05:22:10.144Z,2.30
2023-04-16T05:24:38.592Z,2.40
2023-04-16T05:27:10.192Z,2.50
2023-04-16T05:29:41.227Z,2.70
2023-04-16T05:32:09.658Z,2.70
2023-04-16T05:34:37.866Z,2.90
2023-04-16T05:37:06.082Z,3.00
2023-04-16T05:39:35.812Z,3.30
2023-04-16T05:42:04.235Z,3.50
2023-04-16T05:44:32.465Z,3.60
2023-04-16T05:47:00.732Z,3.30
2023-04-16T05:49:28.883Z,3.40
2023-04-16T05:51:59.536Z,3.70
2023-04-16T05:54:27.831Z,3.70
2023-04-16T05:56:57.892Z,3.90
2023-04-16T05:59:26.347Z,4.10
2023-04-16T06:01:54.701Z,4.30
2023-04-16T06:04:22.943Z,4.30
2023-04-16T06:06:51.489Z,4.50
2023-04-16T06:09:19.593Z,4.60
2023-04-16T06:11:47.758Z,4.60
2023-04-16T06:14:17.477Z,4.40
2023-04-16T06:16:45.631Z,4.60
2023-04-16T06:19:13.906Z,5.10
2023-04-16T06:21:42.007Z,5.20
2023-04-16T06:24:10.240Z,5.10
2023-04-16T06:26:38.650Z,5.00
2023-04-16T06:29:06.845Z,4.80
2023-04-16T06:31:36.530Z,4.60
2023-04-16T06:34:04.800Z,4.60
2023-04-16T06:36:32.930Z,4.60
2023-04-16T06:39:01.278Z,4.60
2023-04-16T06:41:32.481Z,4.60
2023-04-16T06:44:00.815Z,4.60
2023-04-16T06:46:29.041Z,4.80
2023-04-16T06:49:01.442Z,5.10
2023-04-16T06:51:29.802Z,5.10
2023-04-16T06:53:57.938Z,5.00
2023-04-16T06:56:26.451Z,4.90
2023-04-16T06:58:54.593Z,4.90
2023-04-16T07:01:25.176Z,4.90
2023-04-16T07:03:53.900Z,5.00
2023-04-16T07:06:23.683Z,5.20
2023-04-16T07:08:52.060Z,5.40
2023-04-16T07:11:23.496Z,5.30
2023-04-16T07:13:53.291Z,5.30
2023-04-16T07:16:21.546Z,5.60
2023-04-16T07:18:49.681Z,5.60
2023-04-16T07:21:20.024Z,5.20
2023-04-16T07:23:49.629Z,5.20
2023-04-16T07:26:20.564Z,5.30
2023-04-16T07:28:50.867Z,5.60
2023-04-16T07:31:19.153Z,5.40
2023-04-16T07:33:47.512Z,5.70
2023-04-16T07:36:15.598Z,5.70
2023-04-16T07:38:43.985Z,5.60
2023-04-16T07:41:14.143Z,5.90
2023-04-16T07:43:42.573Z,6.10
2023-04-16T07:46:10.750Z,6.10
2023-04-16T07:48:39.253Z,6.10
2023-04-16T07:51:07.506Z,6.10
2023-04-16T07:53:35.727Z,6.10
2023-04-16T07:56:04.015Z,5.70
2023-04-16T07:58:33.628Z,5.90
2023-04-16T08:01:01.762Z,6.00
2023-04-16T08:03:30.227Z,6.00
2023-04-16T08:06:00.706Z,6.00
2023-04-16T08:08:29.854Z,6.20
2023-04-16T08:10:58.264Z,6.20
2023-04-16T08:13:26.553Z,5.70
2023-04-16T08:15:56.276Z,5.70
2023-04-16T08:18:24.477Z,6.10
2023-04-16T08:20:52.580Z,6.00
2023-04-16T08:23:21.141Z,6.20
2023-04-16T08:25:50.408Z,5.80
2023-04-16T08:28:20.082Z,6.30
2023-04-16T08:30:48.309Z,5.80
2023-04-16T08:33:18.011Z,6.20
2023-04-16T08:35:46.335Z,6.20
2023-04-16T08:38:14.728Z,5.80
2023-04-16T08:40:43.142Z,6.00
2023-04-16T08:43:12.596Z,6.00
2023-04-16T08:45:42.359Z,6.30
2023-04-16T08:48:13.476Z,6.40
2023-04-16T08:50:43.321Z,6.20
2023-04-16T08:53:12.594Z,6.30
2023-04-16T08:55:42.075Z,6.50
2023-04-16T08:58:13.812Z,6.60
2023-04-16T09:00:42.438Z,6.70
2023-04-16T09:03:11.200Z,7.00
2023-04-16T09:05:39.598Z,7.00
2023-04-16T09:08:09.471Z,7.00
2023-04-16T09:10:37.845Z,6.60
2023-04-16T09:13:06.052Z,6.50
2023-04-16T09:15:35.334Z,6.70
2023-04-16T09:18:03.586Z,6.90
2023-04-16T09:20:32.830Z,6.80
2023-04-16T09:23:01.143Z,6.90
2023-04-16T09:25:37.489Z,6.70
2023-04-16T09:28:05.831Z,6.70
2023-04-16T09:30:34.939Z,6.70
2023-04-16T09:33:16.872Z,7.20
2023-04-16T09:35:48.699Z,7.70
2023-04-16T09:38:17.351Z,7.30
2023-04-16T09:40:47.722Z,7.00
2023-04-16T09:43:16.733Z,7.00
2023-04-16T09:45:54.439Z,7.30
2023-04-16T09:48:29.432Z,7.60
2023-04-16T09:50:59.846Z,7.70
2023-04-16T09:53:28.518Z,7.60
2023-04-16T09:55:58.992Z,7.10
2023-04-16T09:58:27.530Z,7.00
2023-04-16T10:00:57.189Z,6.90
2023-04-16T10:03:30.593Z,7.50
2023-04-16T10:06:01.071Z,7.10
2023-04-16T10:08:29.359Z,7.30
2023-04-16T10:10:59.130Z,7.40
2023-04-16T10:13:28.068Z,7.30
2023-04-16T10:15:58.038Z,7.70
2023-04-16T10:18:26.600Z,7.20
2023-04-16T10:20:54.751Z,7.50
2023-04-16T10:23:23.236Z,7.00
2023-04-16T10:25:54.629Z,7.30
2023-04-16T10:28:29.254Z,8.20
2023-04-16T10:31:01.122Z,8.00
2023-04-16T10:33:30.060Z,8.00
2023-04-16T10:36:11.274Z,7.60
2023-04-16T10:38:40.415Z,8.10
2023-04-16T10:41:09.204Z,8.00
2023-04-16T10:43:42.330Z,7.90
2023-04-16T10:46:21.040Z,7.70
2023-04-16T10:48:50.814Z,7.80
2023-04-16T10:51:26.247Z,8.00
2023-04-16T10:53:55.655Z,8.00
2023-04-16T10:56:24.570Z,8.50
2023-04-16T10:58:55.444Z,8.50
2023-04-16T11:01:31.025Z,8.40
2023-04-16T11:04:00.383Z,7.90
2023-04-16T11:06:29.634Z,8.00
2023-04-16T11:08:57.995Z,8.70
2023-04-16T11:11:27.068Z,8.40
2023-04-16T11:13:58.461Z,7.90
2023-04-16T11:16:28.180Z,8.40
2023-04-16T11:18:57.221Z,7.60
2023-04-16T11:21:26.793Z,8.30
2023-04-16T11:23:55.041Z,8.10
2023-04-16T11:26:27.292Z,8.50
2023-04-16T11:28:56.308Z,8.00
2023-04-16T11:31:27.392Z,8.20
2023-04-16T11:33:57.017Z,8.40
2023-04-16T11:36:27.464Z,7.90
2023-04-16T11:39:04.976Z,8.50
2023-04-16T11:41:33.434Z,8.60
2023-04-16T11:44:01.602Z,8.70
2023-04-16T11:46:41.210Z,7.80
2023-04-16T11:49:09.667Z,7.70
2023-04-16T11:51:41.002Z,7.30
2023-04-16T11:54:11.842Z,7.60
2023-04-16T11:56:46.568Z,8.20
2023-04-16T11:59:15.676Z,8.50
2023-04-16T12:01:47.217Z,8.70
2023-04-16T12:04:16.020Z,8.80
2023-04-16T12:06:59.334Z,9.30
2023-04-16T12:09:28.145Z,8.80
2023-04-16T12:11:56.280Z,9.40
2023-04-16T12:14:24.547Z,8.90
2023-04-16T12:16:54.223Z,9.30
2023-04-16T12:19:22.463Z,8.30
2023-04-16T12:21:51.550Z,8.20
2023-04-16T12:24:24.354Z,8.20
2023-04-16T12:26:56.088Z,8.50
2023-04-16T12:29:24.886Z,8.30
2023-04-16T12:31:54.895Z,8.50
2023-04-16T12:34:28.967Z,8.90
2023-04-16T12:37:12.681Z,8.00
2023-04-16T12:39:40.930Z,8.40
2023-04-16T12:42:11.502Z,8.20
2023-04-16T12:44:39.654Z,9.10
2023-04-16T12:47:10.655Z,8.50
2023-04-16T12:49:38.850Z,9.10
2023-04-16T12:52:07.174Z,9.40
2023-04-16T12:54:35.814Z,9.80
2023-04-16T12:57:04.219Z,9.00
2023-04-16T12:59:32.321Z,9.40
2023-04-16T13:02:04.128Z,9.20
2023-04-16T13:04:34.092Z,8.80
2023-04-16T13:07:03.549Z,8.70
2023-04-16T13:09:32.013Z,9.30
2023-04-16T13:12:00.232Z,9.80
2023-04-16T13:14:28.305Z,8.50
2023-04-16T13:16:56.582Z,7.30
2023-04-16T13:19:24.666Z,7.30
2023-04-16T13:21:54.347Z,7.80
2023-04-16T13:24:23.299Z,7.50
2023-04-16T13:26:52.256Z,8.70
2023-04-16T13:29:20.466Z,8.30
2023-04-16T13:31:48.872Z,8.70
2023-04-16T13:34:17.313Z,7.90
2023-04-16T13:36:45.480Z,8.40
2023-04-16T13:39:17.092Z,8.60
2023-04-16T13:41:45.283Z,8.80
2023-04-16T13:44:13.699Z,8.90
2023-04-16T13:46:43.699Z,8.40
2023-04-16T13:49:12.046Z,8.60
2023-04-16T13:51:40.250Z,8.20
2023-04-16T13:54:08.501Z,9.00
2023-04-16T13:56:38.157Z,8.70
2023-04-16T13:59:06.528Z,8.50
2023-04-16T14:01:37.699Z,8.80
2023-04-16T14:04:06.966Z,7.90
2023-04-16T14:06:35.726Z,7.30
2023-04-16T14:09:04.152Z,6.90
2023-04-16T14:11:34.974Z,7.70
2023-04-16T14:14:04.594Z,7.60
2023-04-16T14:16:35.334Z,7.40
2023-04-16T14:19:03.709Z,7.10
2023-04-16T14:21:31.938Z,8.10
2023-04-16T14:24:00.222Z,7.50
2023-04-16T14:26:28.399Z,7.50
2023-04-16T14:28:56.543Z,6.80
2023-04-16T14:31:26.325Z,6.60
2023-04-16T14:33:54.490Z,6.40
2023-04-16T14:36:22.751Z,6.60
2023-04-16T14:38:50.891Z,6.60
2023-04-16T14:41:19.128Z,7.00
2023-04-16T14:43:47.405Z,6.90
2023-04-16T14:46:17.863Z,6.90
2023-04-16T14:48:47.844Z,6.50
2023-04-16T14:51:16.010Z,6.60
2023-04-16T14:53:45.176Z,7.10
2023-04-16T14:56:13.756Z,6.80
2023-04-16T14:58:43.066Z,5.90
2023-04-16T15:01:13.722Z,6.50
2023-04-16T15:03:43.134Z,7.30
2023-04-16T15:06:13.849Z,6.80
2023-04-16T15:08:42.119Z,6.60
2023-04-16T15:11:10.219Z,6.60
2023-04-16T15:13:38.563Z,6.50
2023-04-16T15:16:06.694Z,6.10
2023-04-16T15:18:34.994Z,5.90
2023-04-16T15:21:05.470Z,5.70
2023-04-16T15:23:35.027Z,5.60
2023-04-16T15:26:03.555Z,6.20
2023-04-16T15:28:31.861Z,7.00
2023-04-16T15:31:00.149Z,7.40
2023-04-16T15:33:28.344Z,7.70
2023-04-16T15:35:56.713Z,6.40
2023-04-16T15:38:24.897Z,6.20
2023-04-16T15:40:54.529Z,6.90
2023-04-16T15:43:22.683Z,7.40
2023-04-16T15:45:50.919Z,6.80
2023-04-16T15:48:19.059Z,7.20
2023-04-16T15:50:47.366Z,6.80
2023-04-16T15:53:15.495Z,6.50
2023-04-16T15:55:43.713Z,6.00
2023-04-16T15:58:13.377Z,5.30
2023-04-16T16:00:41.793Z,5.20
2023-04-16T16:03:10.695Z,5.60
2023-04-16T16:05:40.460Z,6.10
2023-04-16T16:08:08.678Z,6.20
2023-04-16T16:10:36.835Z,5.70
2023-04-16T16:13:06.215Z,5.50
2023-04-16T16:15:36.024Z,5.60
2023-04-16T16:18:04.252Z,6.40
2023-04-16T16:20:32.779Z,6.80
2023-04-16T16:23:01.384Z,6.70
2023-04-16T16:25:30.512Z,5.50
2023-04-16T16:27:58.985Z,5.30
2023-04-16T16:30:27.375Z,4.80
2023-04-16T16:32:57.025Z,4.90
2023-04-16T16:35:26.410Z,5.60
2023-04-16T16:37:57.336Z,6.20
2023-04-16T16:40:25.618Z,6.10
2023-04-16T16:42:53.998Z,6.70
2023-04-16T16:45:22.364Z,6.50
2023-04-16T16:47:50.644Z,6.20
2023-04-16T16:50:20.351Z,5.50
2023-04-16T16:52:48.603Z,5.40
2023-04-16T16:55:18.612Z,5.30
2023-04-16T16:57:47.164Z,5.40
2023-04-16T17:00:16.339Z,5.00
2023-04-16T17:02:44.803Z,5.40
2023-04-16T17:05:13.664Z,5.30
2023-04-16T17:07:45.984Z,5.30
2023-04-16T17:10:20.129Z,5.50
2023-04-16T17:12:49.074Z,5.30
2023-04-16T17:15:19.677Z,5.30
2023-04-16T17:17:49.995Z,5.10
2023-04-16T17:20:18.172Z,5.00
2023-04-16T17:22:48.012Z,4.80
2023-04-16T17:25:16.219Z,4.40
2023-04-16T17:27:44.476Z,4.40
2023-04-16T17:30:13.089Z,4.60
2023-04-16T17:32:41.315Z,4.70
2023-04-16T17:35:11.059Z,4.70
2023-04-16T17:37:39.487Z,4.60
2023-04-16T17:40:10.147Z,4.30
2023-04-16T17:42:38.565Z,4.50
2023-04-16T17:45:07.371Z,4.30
2023-04-16T17:47:35.910Z,4.10
2023-04-16T17:50:04.089Z,4.10
2023-04-16T17:52:32.547Z,4.60
2023-04-16T17:55:01.787Z,4.20
2023-04-16T17:57:31.711Z,3.90
2023-04-16T18:00:00.070Z,3.90
2023-04-16T18:02:28.367Z,4.20
2023-04-16T18:04:56.716Z,4.10
2023-04-16T18:07:24.900Z,3.80
2023-04-16T18:09:53.011Z,3.90
2023-04-16T18:12:21.180Z,3.90
2023-04-16T18:14:50.962Z,4.10
2023-04-16T18:17:21.993Z,4.00
2023-04-16T18:19:50.089Z,4.10
2023-04-16T18:22:18.443Z,3.90
2023-04-16T18:24:46.859Z,3.70
2023-04-16T18:27:15.052Z,3.50
2023-04-16T18:29:45.250Z,3.30
2023-04-16T18:32:15.082Z,3.40
2023-04-16T18:34:43.562Z,3.60
2023-04-16T18:37:11.706Z,3.70
2023-04-16T18:39:39.936Z,3.50
2023-04-16T18:42:08.266Z,3.50
2023-04-16T18:44:36.429Z,3.40
2023-04-16T18:47:04.705Z,3.40
2023-04-16T18:49:34.465Z,3.40
2023-04-16T18:52:02.573Z,3.40
2023-04-16T18:54:30.731Z,3.40
2023-04-16T18:57:01.740Z,3.40
2023-04-16T18:59:29.917Z,3.20
2023-04-16T19:01:58.052Z,3.10
2023-04-16T19:04:26.223Z,3.20
2023-04-16T19:06:55.996Z,3.10
2023-04-16T19:09:26.547Z,3.10
2023-04-16T19:11:54.740Z,3.10
2023-04-16T19:14:22.975Z,3.00
2023-04-16T19:16:51.077Z,2.90
2023-04-16T19:19:19.367Z,2.80
2023-04-16T19:21:47.702Z,2.90
2023-04-16T19:24:17.630Z,2.90
2023-04-16T19:26:45.766Z,2.90
2023-04-16T19:29:14.028Z,2.70
2023-04-16T19:31:42.258Z,2.50
2023-04-16T19:34:10.533Z,2.60
2023-04-16T19:36:38.677Z,2.60
2023-04-16T19:39:07.138Z,2.60
2023-04-16T19:41:36.802Z,2.40
2023-04-16T19:44:05.200Z,2.30
2023-04-16T19:46:33.340Z,2.40
2023-04-16T19:49:01.560Z,2.10
2023-04-16T19:51:29.794Z,2.00
2023-04-16T19:53:58.969Z,2.00
2023-04-16T19:56:27.396Z,2.00
2023-04-16T19:58:57.090Z,2.00
2023-04-16T20:01:25.501Z,1.90
2023-04-16T20:03:54.813Z,2.00
2023-04-16T20:06:23.020Z,2.20
2023-04-16T20:08:51.279Z,2.10
2023-04-16T20:11:19.388Z,2.00
2023-04-16T20:13:47.873Z,1.90
2023-04-16T20:16:17.636Z,1.90
2023-04-16T20:18:46.205Z,1.80
2023-04-16T20:21:14.516Z,1.70
2023-04-16T20:23:42.668Z,1.70
2023-04-16T20:26:10.942Z,1.70
2023-04-16T20:28:39.137Z,1.70
2023-04-16T20:31:07.386Z,1.70
2023-04-16T20:33:37.075Z,1.50
2023-04-16T20:36:05.650Z,1.60
2023-04-16T20:38:34.385Z,1.50
2023-04-16T20:41:10.133Z,1.40
2023-04-16T20:43:40.840Z,1.50
2023-04-16T20:46:09.107Z,1.50
2023-04-16T20:48:39.489Z,1.50
2023-04-16T20:51:09.555Z,1.40
2023-04-16T20:53:38.249Z,1.40
2023-04-16T20:56:06.942Z,1.40
2023-04-16T20:58:35.359Z,1.40
2023-04-16T21:01:03.496Z,1.40
2023-04-16T21:03:32.087Z,1.20
2023-04-16T21:06:02.523Z,1.00
2023-04-16T21:08:30.667Z,1.10
2023-04-16T21:10:58.744Z,1.20
2023-04-16T21:13:26.908Z,1.10
2023-04-16T21:15:55.137Z,1.20
2023-04-16T21:18:23.311Z,1.20
2023-04-16T21:20:54.402Z,1.40
2023-04-16T21:23:26.709Z,1.40
2023-04-16T21:25:56.459Z,1.20
2023-04-16T21:28:24.630Z,1.00
2023-04-16T21:30:52.955Z,1.20
2023-04-16T21:33:21.435Z,1.20
2023-04-16T21:35:52.280Z,1.20
2023-04-16T21:38:20.453Z,1.00
2023-04-16T21:40:53.859Z,1.00
2023-04-16T21:43:22.123Z,1.10
2023-04-16T21:45:50.209Z,1.10
2023-04-16T21:48:18.455Z,1.00
2023-04-16T21:50:46.681Z,1.00
2023-04-16T21:53:15.263Z,0.90
2023-04-16T21:55:43.414Z,0.80
2023-04-16T21:58:13.166Z,0.80
2023-04-16T22:00:41.296Z,0.80
2023-04-16T22:03:12.480Z,0.80
2023-04-16T22:05:40.782Z,0.80
2023-04-16T22:08:23.256Z,0.70
2023-04-16T22:10:52.940Z,0.60
2023-04-16T22:13:22.879Z,0.70
2023-04-16T22:15:51.107Z,0.70
2023-04-16T22:18:19.321Z,0.70
2023-04-16T22:20:50.888Z,0.70
2023-04-16T22:23:19.011Z,0.60
2023-04-16T22:25:47.169Z,0.50
2023-04-16T22:28:15.561Z,0.60
2023-04-16T22:30:45.118Z,0.60
2023-04-16T22:33:13.342Z,0.60
2023-04-16T22:35:41.762Z,0.70
2023-04-16T22:38:10.317Z,0.70
2023-04-16T22:40:38.485Z,0.60
2023-04-16T22:43:06.703Z,0.50
2023-04-16T22:45:34.844Z,0.50
2023-04-16T22:48:04.475Z,0.50
2023-04-16T22:50:32.825Z,0.50
2023-04-16T22:53:00.963Z,0.50
2023-04-16T22:55:31.984Z,0.60
2023-04-16T22:58:00.551Z,0.60
2023-04-16T23:00:28.828Z,0.50
2023-04-16T23:28:05.899Z,0.50
2023-04-16T23:30:35.595Z,0.30
2023-04-16T23:33:04.720Z,0.40
2023-04-16T23:35:33.003Z,0.60
2023-04-16T23:38:01.435Z,0.60
2023-04-16T23:40:29.658Z,0.50
2023-04-16T23:42:57.900Z,0.40
2023-04-16T23:45:26.109Z,0.40
2023-04-16T23:47:55.665Z,0.40
2023-04-16T23:50:23.951Z,0.30
2023-04-16T23:52:52.312Z,0.30
2023-04-16T23:55:20.567Z,0.40
2023-04-16T23:57:48.730Z,0.20
